createdAt,value
2023-03-02T00:03:42.014Z,119.90
2023-03-02T00:07:47.056Z,116.30
2023-03-02T00:11:45.976Z,134.10
2023-03-02T00:15:44.038Z,117.50
2023-03-02T00:19:43.025Z,114.10
2023-03-02T00:23:40.939Z,142.20
2023-03-02T00:27:38.918Z,139.70
2023-03-02T00:31:37.069Z,138.50
2023-03-02T00:35:34.917Z,141.40
2023-03-02T00:39:32.966Z,140.40
2023-03-02T00:43:34.927Z,148.90
2023-03-02T00:47:32.984Z,140.20
2023-03-02T00:51:31.875Z,135.60
2023-03-02T00:55:29.936Z,127.80
2023-03-02T00:59:36.866Z,122.90
2023-03-02T01:03:45.892Z,107.70
2023-03-02T01:07:43.871Z,92.60
2023-03-02T01:11:42.213Z,78.50
2023-03-02T01:15:39.845Z,91.50
2023-03-02T01:19:38.079Z,102.70
2023-03-02T01:23:35.844Z,89.50
2023-03-02T01:27:35.821Z,105.70
2023-03-02T01:31:33.915Z,103.70
2023-03-02T01:35:31.843Z,101.90
2023-03-02T01:39:29.910Z,99.50
2023-03-02T01:43:30.975Z,94.60
2023-03-02T01:47:39.838Z,88.60
2023-03-02T01:51:44.937Z,89.10
2023-03-02T01:55:45.897Z,89.30
2023-03-02T01:59:46.807Z,95.50
2023-03-02T02:03:45.807Z,88.90
2023-03-02T02:07:43.820Z,103.20
2023-03-02T02:11:41.756Z,86.30
2023-03-02T02:15:39.864Z,82.80
2023-03-02T02:20:03.729Z,82.40
2023-03-02T02:24:10.819Z,71.60
2023-03-02T02:28:08.770Z,63.50
2023-03-02T02:32:16.871Z,69.20
2023-03-02T02:36:21.727Z,62.50
2023-03-02T02:40:27.711Z,67.60
2023-03-02T02:44:31.715Z,69.00
2023-03-02T02:48:31.813Z,71.60
2023-03-02T02:52:33.728Z,69.80
2023-03-02T02:56:33.003Z,62.60
2023-03-02T03:00:34.690Z,73.80
2023-03-02T03:04:35.879Z,66.40
2023-03-02T03:08:58.723Z,64.00
2023-03-02T03:13:01.687Z,64.50
2023-03-02T03:17:00.771Z,68.00
2023-03-02T03:20:58.847Z,65.50
2023-03-02T03:24:58.670Z,66.60
2023-03-02T03:28:57.691Z,63.60
2023-03-02T03:32:56.641Z,62.00
2023-03-02T03:36:54.672Z,59.00
2023-03-02T03:40:53.758Z,61.60
2023-03-02T03:44:51.665Z,55.80
2023-03-02T03:48:49.640Z,54.60
2023-03-02T03:52:47.724Z,51.80
2023-03-02T03:56:54.273Z,53.90
2023-03-02T04:00:53.773Z,50.10
2023-03-02T04:04:51.652Z,49.20
2023-03-02T04:08:49.589Z,49.40
2023-03-02T04:12:49.587Z,47.50
2023-03-02T04:16:47.606Z,51.70
2023-03-02T04:20:46.634Z,47.70
2023-03-02T04:24:44.716Z,50.10
2023-03-02T04:28:42.595Z,48.00
2023-03-02T04:32:40.586Z,47.90
2023-03-02T04:36:38.883Z,49.10
2023-03-02T04:40:37.669Z,49.40
2023-03-02T04:44:35.587Z,46.90
2023-03-02T04:48:33.550Z,48.90
2023-03-02T04:52:31.538Z,51.20
2023-03-02T04:56:29.596Z,51.90
2023-03-02T05:00:28.531Z,50.20
2023-03-02T05:04:27.666Z,52.50
2023-03-02T05:08:25.530Z,48.10
2023-03-02T05:12:25.616Z,50.00
2023-03-02T05:16:23.628Z,54.10
2023-03-02T05:20:21.519Z,50.90
2023-03-02T05:24:19.541Z,55.60
2023-03-02T05:28:18.510Z,52.80
2023-03-02T05:32:16.519Z,55.50
2023-03-02T05:36:17.142Z,56.40
2023-03-02T05:40:17.672Z,59.50
2023-03-02T05:44:18.491Z,61.40
2023-03-02T05:48:16.515Z,60.70
2023-03-02T05:52:14.669Z,56.20
2023-03-02T05:56:12.485Z,55.00
2023-03-02T06:00:11.453Z,54.20
2023-03-02T06:04:09.432Z,53.40
2023-03-02T06:08:07.457Z,54.10
2023-03-02T06:12:05.524Z,56.70
2023-03-02T06:16:03.561Z,53.10
2023-03-02T06:20:01.411Z,53.80
2023-03-02T06:23:59.425Z,53.00
2023-03-02T06:28:00.400Z,56.80
2023-03-02T06:31:58.473Z,68.40
2023-03-02T06:35:56.535Z,58.90
2023-03-02T06:39:55.581Z,55.10
2023-03-02T06:43:53.437Z,55.20
2023-03-02T06:47:51.522Z,54.40
2023-03-02T06:51:49.406Z,55.80
2023-03-02T06:55:47.448Z,53.90
2023-03-02T06:59:38.597Z,54.30
2023-03-02T07:03:02.605Z,53.70
2023-03-02T07:06:26.864Z,54.40
2023-03-02T07:09:50.807Z,57.90
2023-03-02T07:13:14.919Z,53.50
2023-03-02T07:16:38.787Z,56.70
2023-03-02T07:20:05.359Z,56.50
2023-03-02T07:23:29.252Z,54.90
2023-03-02T07:26:53.082Z,55.90
2023-03-02T07:30:21.294Z,56.90
2023-03-02T07:33:45.230Z,57.20
2023-03-02T07:37:09.163Z,58.70
2023-03-02T07:40:34.834Z,56.90
2023-03-02T07:43:58.860Z,57.40
2023-03-02T07:47:24.595Z,56.40
2023-03-02T07:50:48.578Z,58.30
2023-03-02T07:54:12.556Z,57.00
2023-03-02T07:57:36.572Z,60.40
2023-03-02T08:01:02.588Z,59.90
2023-03-02T08:04:27.010Z,60.10
2023-03-02T08:07:50.874Z,61.20
2023-03-02T08:11:17.782Z,61.10
2023-03-02T08:14:41.628Z,63.10
2023-03-02T08:18:05.688Z,65.80
2023-03-02T08:21:30.498Z,66.40
2023-03-02T08:24:54.498Z,64.00
2023-03-02T08:28:18.508Z,65.60
2023-03-02T08:31:42.396Z,66.80
2023-03-02T08:35:07.434Z,63.80
2023-03-02T08:38:32.912Z,63.30
2023-03-02T08:41:57.048Z,66.80
2023-03-02T08:45:21.181Z,67.20
2023-03-02T08:48:45.714Z,68.80
2023-03-02T08:52:09.685Z,70.30
2023-03-02T08:55:37.532Z,70.20
2023-03-02T08:59:05.105Z,70.00
2023-03-02T09:02:29.074Z,69.40
2023-03-02T09:05:53.168Z,72.70
2023-03-02T09:09:17.054Z,70.20
2023-03-02T09:12:41.049Z,67.70
2023-03-02T09:16:05.922Z,75.90
2023-03-02T09:19:38.846Z,70.30
2023-03-02T09:23:02.778Z,71.30
2023-03-02T09:26:27.710Z,70.60
2023-03-02T09:29:51.689Z,72.50
2023-03-02T09:33:15.794Z,71.00
2023-03-02T09:36:40.074Z,72.00
2023-03-02T09:40:04.157Z,74.20
2023-03-02T09:43:28.249Z,70.30
2023-03-02T09:46:57.416Z,70.10
2023-03-02T09:50:32.053Z,70.40
2023-03-02T09:54:11.478Z,72.30
2023-03-02T09:57:39.928Z,69.90
2023-03-02T10:01:10.467Z,71.20
2023-03-02T10:04:45.389Z,72.80
2023-03-02T10:08:20.520Z,70.20
2023-03-02T10:11:54.907Z,69.10
2023-03-02T10:15:27.217Z,70.00
2023-03-02T10:19:11.241Z,68.20
2023-03-02T10:22:43.615Z,68.00
2023-03-02T10:26:28.230Z,67.90
2023-03-02T10:30:09.452Z,65.60
2023-03-02T10:33:36.867Z,68.90
2023-03-02T10:37:02.344Z,71.70
2023-03-02T10:40:42.614Z,75.20
2023-03-02T10:44:30.697Z,68.20
2023-03-02T10:48:20.713Z,64.70
2023-03-02T10:51:44.647Z,73.00
2023-03-02T10:55:15.359Z,72.90
2023-03-02T10:58:39.761Z,74.10
2023-03-02T11:02:15.204Z,70.00
2023-03-02T11:05:41.501Z,66.60
2023-03-02T11:09:07.980Z,74.80
2023-03-02T11:12:33.325Z,67.10
2023-03-02T11:16:00.468Z,69.50
2023-03-02T11:19:41.597Z,68.80
2023-03-02T11:23:26.014Z,70.50
2023-03-02T11:27:17.841Z,69.90
2023-03-02T11:30:48.804Z,70.40
2023-03-02T11:34:32.658Z,67.70
2023-03-02T11:38:01.004Z,65.30
2023-03-02T11:41:36.194Z,60.20
2023-03-02T11:45:05.563Z,58.10
2023-03-02T11:48:32.576Z,55.50
2023-03-02T11:52:00.000Z,59.60
2023-03-02T11:55:29.323Z,61.80
2023-03-02T11:59:04.750Z,60.40
2023-03-02T12:02:29.315Z,59.90
2023-03-02T12:05:53.347Z,57.20
2023-03-02T12:09:31.235Z,62.60
2023-03-02T12:13:07.585Z,58.10
2023-03-02T12:20:23.396Z,56.30
2023-03-02T12:23:50.381Z,51.20
2023-03-02T12:27:14.457Z,50.70
2023-03-02T12:30:38.516Z,49.80
2023-03-02T12:34:23.375Z,54.20
2023-03-02T12:37:53.581Z,53.40
2023-03-02T12:41:31.879Z,52.90
2023-03-02T12:45:25.472Z,54.10
2023-03-02T12:49:13.035Z,48.70
2023-03-02T12:52:38.059Z,51.00
2023-03-02T12:56:02.105Z,51.50
2023-03-02T12:59:29.342Z,52.40
2023-03-02T13:02:56.214Z,46.90
2023-03-02T13:06:21.501Z,46.90
2023-03-02T13:09:56.137Z,41.50
2023-03-02T13:13:33.835Z,37.60
2023-03-02T13:17:03.013Z,40.70
2023-03-02T13:20:30.687Z,38.50
2023-03-02T13:23:54.593Z,38.90
2023-03-02T13:27:21.911Z,40.20
2023-03-02T13:30:48.092Z,39.80
2023-03-02T13:34:27.740Z,41.40
2023-03-02T13:38:26.004Z,41.40
2023-03-02T13:41:55.812Z,41.00
2023-03-02T13:45:23.074Z,40.50
2023-03-02T13:49:10.651Z,39.50
2023-03-02T13:52:35.362Z,36.60
2023-03-02T13:56:01.341Z,34.10
2023-03-02T13:59:25.563Z,37.00
2023-03-02T14:02:50.740Z,32.30
2023-03-02T14:06:14.791Z,31.20
2023-03-02T14:09:38.718Z,28.80
2023-03-02T14:13:12.623Z,29.50
2023-03-02T14:16:37.208Z,29.60
2023-03-02T14:20:01.010Z,27.80
2023-03-02T14:23:27.189Z,28.80
2023-03-02T14:26:51.273Z,26.20
2023-03-02T14:30:31.883Z,27.40
2023-03-02T14:34:31.913Z,25.10
2023-03-02T14:38:29.893Z,23.00
2023-03-02T14:42:30.753Z,24.50
2023-03-02T14:46:28.856Z,25.90
2023-03-02T14:50:26.879Z,25.10
2023-03-02T14:54:32.750Z,24.60
2023-03-02T14:58:39.714Z,25.70
2023-03-02T15:02:38.877Z,22.50
2023-03-02T15:06:45.711Z,21.10
2023-03-02T15:10:46.747Z,20.70
2023-03-02T15:14:44.713Z,21.40
2023-03-02T15:18:42.777Z,22.80
2023-03-02T15:22:40.849Z,21.90
2023-03-02T15:26:39.029Z,19.00
2023-03-02T15:30:36.698Z,17.30
2023-03-02T15:34:36.824Z,16.20
2023-03-02T15:38:34.696Z,16.50
2023-03-02T15:42:32.781Z,15.00
2023-03-02T15:46:30.815Z,14.90
2023-03-02T15:50:28.743Z,15.70
2023-03-02T15:54:26.772Z,15.50
2023-03-02T15:58:25.717Z,15.20
2023-03-02T16:02:24.650Z,15.00
2023-03-02T16:06:23.715Z,15.80
2023-03-02T16:10:22.648Z,15.90
2023-03-02T16:14:22.760Z,15.40
2023-03-02T16:18:24.823Z,15.80
2023-03-02T16:22:22.878Z,16.90
2023-03-02T16:26:22.840Z,17.00
2023-03-02T16:30:23.157Z,16.20
2023-03-02T16:34:23.600Z,15.90
2023-03-02T16:38:21.680Z,15.60
2023-03-02T16:42:19.571Z,17.90
2023-03-02T16:46:17.673Z,14.80
2023-03-02T16:50:16.597Z,14.10
2023-03-02T16:54:14.655Z,14.10
2023-03-02T16:58:12.636Z,15.70
2023-03-02T17:02:10.698Z,16.40
2023-03-02T17:06:08.565Z,16.60
2023-03-02T17:10:06.757Z,17.40
2023-03-02T17:14:04.555Z,17.90
2023-03-02T17:18:02.707Z,16.30
2023-03-02T17:22:00.683Z,16.20
2023-03-02T17:25:58.663Z,16.70
2023-03-02T17:29:56.550Z,16.40
2023-03-02T17:33:54.617Z,15.60
2023-03-02T17:37:52.537Z,17.10
2023-03-02T17:41:50.593Z,18.20
2023-03-02T17:45:49.584Z,20.30
2023-03-02T17:49:47.558Z,20.70
2023-03-02T17:53:45.572Z,18.10
2023-03-02T17:57:44.575Z,18.90
2023-03-02T18:01:44.591Z,15.90
2023-03-02T18:05:42.609Z,15.20
2023-03-02T18:09:40.532Z,16.30
2023-03-02T18:13:38.465Z,17.00
2023-03-02T18:17:36.439Z,17.40
2023-03-02T18:21:34.557Z,15.30
2023-03-02T18:25:32.544Z,16.70
2023-03-02T18:29:30.443Z,16.10
2023-03-02T18:33:28.456Z,15.20
2023-03-02T18:37:26.444Z,15.90
2023-03-02T18:41:26.440Z,16.90
2023-03-02T18:45:35.535Z,16.10
2023-03-02T18:49:33.393Z,13.90
2023-03-02T18:53:32.414Z,14.50
2023-03-02T18:57:30.409Z,16.60
2023-03-02T19:01:28.450Z,16.00
2023-03-02T19:05:26.454Z,13.50
2023-03-02T19:09:25.453Z,15.70
2023-03-02T19:13:23.439Z,14.40
2023-03-02T19:17:21.461Z,16.50
2023-03-02T19:21:20.327Z,17.00
2023-03-02T19:25:18.604Z,14.70
2023-03-02T19:29:16.424Z,14.50
2023-03-02T19:33:16.510Z,17.10
2023-03-02T19:37:14.345Z,13.90
2023-03-02T19:41:14.414Z,12.70
2023-03-02T19:45:12.420Z,14.90
2023-03-02T19:49:10.394Z,13.50
2023-03-02T19:53:09.335Z,14.70
2023-03-02T19:57:09.340Z,15.10
2023-03-02T20:01:09.432Z,16.70
2023-03-02T20:05:08.337Z,15.50
2023-03-02T20:09:07.319Z,16.70
2023-03-02T20:13:07.570Z,16.60
2023-03-02T20:17:05.337Z,17.50
2023-03-02T20:21:03.419Z,18.70
2023-03-02T20:25:01.397Z,19.80
2023-03-02T20:29:00.303Z,21.00
2023-03-02T20:32:58.484Z,20.00
2023-03-02T20:37:02.987Z,18.80
2023-03-02T20:41:01.303Z,19.10
2023-03-02T20:45:01.612Z,19.50
2023-03-02T20:48:59.303Z,19.50
2023-03-02T20:52:57.389Z,20.60
2023-03-02T20:56:56.398Z,21.60
2023-03-02T21:00:59.253Z,21.70
2023-03-02T21:04:57.310Z,22.10
2023-03-02T21:08:55.349Z,25.90
2023-03-02T21:12:55.611Z,25.00
2023-03-02T21:16:54.199Z,21.60
2023-03-02T21:20:54.202Z,22.70
2023-03-02T21:24:52.306Z,21.60
2023-03-02T21:28:51.193Z,21.50
2023-03-02T21:32:52.189Z,21.50
2023-03-02T21:36:50.163Z,22.30
2023-03-02T21:40:53.299Z,21.20
2023-03-02T21:44:51.173Z,20.20
2023-03-02T21:48:49.256Z,20.00
2023-03-02T21:52:40.684Z,17.20
2023-03-02T21:56:39.175Z,19.20
2023-03-02T22:00:49.176Z,19.00
2023-03-02T22:04:48.197Z,21.20
2023-03-02T22:08:46.213Z,21.50
2023-03-02T22:12:44.192Z,20.20
2023-03-02T22:16:47.103Z,21.30
2023-03-02T22:20:45.166Z,21.40
2023-03-02T22:24:48.163Z,22.90
2023-03-02T22:28:47.275Z,21.20
2023-03-02T22:32:51.107Z,23.30
2023-03-02T22:36:49.133Z,22.90
2023-03-02T22:40:49.205Z,22.00
2023-03-02T22:44:47.231Z,23.90
2023-03-02T22:48:45.073Z,26.10
2023-03-02T22:52:53.100Z,25.20
2023-03-02T22:56:53.061Z,24.30
2023-03-02T23:00:55.180Z,25.30
2023-03-02T23:04:53.028Z,21.00
2023-03-02T23:08:58.100Z,21.50
2023-03-02T23:12:56.075Z,24.40
2023-03-02T23:16:54.156Z,22.20
2023-03-02T23:20:52.039Z,21.40
2023-03-02T23:24:50.063Z,20.50
2023-03-02T23:28:41.186Z,21.30
2023-03-02T23:32:39.125Z,22.20
2023-03-02T23:36:37.993Z,24.80
2023-03-02T23:40:36.034Z,28.90
2023-03-02T23:44:34.004Z,31.50
2023-03-02T23:48:32.024Z,28.50
2023-03-02T23:57:18.595Z,34.60
